sensor_id;sensor_type;location;lat;lon;timestamp;pressure;altitude;pressure_sealevel;temperature;humidity
77017;BME280;65949;53.132;17.930;2023-10-31T00:01:26;99548.21;;;9.26;97.85
77017;BME280;65949;53.132;17.930;2023-10-31T00:03:53;99546.80;;;9.27;98.10
77017;BME280;65949;53.132;17.930;2023-10-31T00:06:19;99542.27;;;9.29;98.00
77017;BME280;65949;53.132;17.930;2023-10-31T00:08:46;99537.65;;;9.32;98.16
77017;BME280;65949;53.132;17.930;2023-10-31T00:11:12;99535.88;;;9.35;98.39
77017;BME280;65949;53.132;17.930;2023-10-31T00:13:39;99529.34;;;9.39;98.25
77017;BME280;65949;53.132;17.930;2023-10-31T00:16:06;99522.29;;;9.43;98.64
77017;BME280;65949;53.132;17.930;2023-10-31T00:18:33;99515.39;;;9.47;99.10
77017;BME280;65949;53.132;17.930;2023-10-31T00:21:00;99513.40;;;9.50;99.12
77017;BME280;65949;53.132;17.930;2023-10-31T00:23:27;99502.86;;;9.53;99.29
77017;BME280;65949;53.132;17.930;2023-10-31T00:25:53;99498.46;;;9.57;99.32
77017;BME280;65949;53.132;17.930;2023-10-31T00:28:20;99498.38;;;9.60;98.99
77017;BME280;65949;53.132;17.930;2023-10-31T00:30:46;99494.40;;;9.63;99.08
77017;BME280;65949;53.132;17.930;2023-10-31T00:33:13;99488.50;;;9.66;99.11
77017;BME280;65949;53.132;17.930;2023-10-31T00:35:40;99478.86;;;9.68;99.16
77017;BME280;65949;53.132;17.930;2023-10-31T00:38:06;99474.61;;;9.71;99.06
77017;BME280;65949;53.132;17.930;2023-10-31T00:40:33;99466.38;;;9.72;99.28
77017;BME280;65949;53.132;17.930;2023-10-31T00:42:59;99461.58;;;9.74;99.27
77017;BME280;65949;53.132;17.930;2023-10-31T00:45:27;99453.04;;;9.74;99.26
77017;BME280;65949;53.132;17.930;2023-10-31T00:47:54;99446.94;;;9.75;99.16
77017;BME280;65949;53.132;17.930;2023-10-31T00:50:20;99442.84;;;9.76;99.11
77017;BME280;65949;53.132;17.930;2023-10-31T00:52:47;99440.25;;;9.77;99.18
77017;BME280;65949;53.132;17.930;2023-10-31T00:55:14;99438.32;;;9.78;99.03
77017;BME280;65949;53.132;17.930;2023-10-31T00:57:40;99431.33;;;9.79;99.42
77017;BME280;65949;53.132;17.930;2023-10-31T01:00:08;99425.60;;;9.81;99.36
77017;BME280;65949;53.132;17.930;2023-10-31T01:02:36;99422.25;;;9.82;99.23
77017;BME280;65949;53.132;17.930;2023-10-31T01:05:02;99418.95;;;9.84;99.43
77017;BME280;65949;53.132;17.930;2023-10-31T01:07:30;99412.95;;;9.84;99.52
77017;BME280;65949;53.132;17.930;2023-10-31T01:09:56;99407.75;;;9.85;99.71
77017;BME280;65949;53.132;17.930;2023-10-31T01:12:23;99409.56;;;9.86;99.62
77017;BME280;65949;53.132;17.930;2023-10-31T01:14:49;99405.48;;;9.86;99.57
77017;BME280;65949;53.132;17.930;2023-10-31T01:17:16;99399.34;;;9.87;99.76
77017;BME280;65949;53.132;17.930;2023-10-31T01:19:43;99391.22;;;9.88;99.86
77017;BME280;65949;53.132;17.930;2023-10-31T01:22:10;99386.33;;;9.88;99.79
77017;BME280;65949;53.132;17.930;2023-10-31T01:24:37;99377.16;;;9.89;99.91
77017;BME280;65949;53.132;17.930;2023-10-31T01:27:03;99367.51;;;9.90;100.00
77017;BME280;65949;53.132;17.930;2023-10-31T01:29:30;99356.67;;;9.91;99.99
77017;BME280;65949;53.132;17.930;2023-10-31T01:31:57;99341.94;;;9.91;100.00
77017;BME280;65949;53.132;17.930;2023-10-31T01:34:23;99333.39;;;9.92;100.00
77017;BME280;65949;53.132;17.930;2023-10-31T01:36:50;99328.08;;;9.93;99.99
77017;BME280;65949;53.132;17.930;2023-10-31T01:39:16;99318.10;;;9.95;100.00
77017;BME280;65949;53.132;17.930;2023-10-31T01:41:43;99307.23;;;9.96;100.00
77017;BME280;65949;53.132;17.930;2023-10-31T01:44:10;99299.38;;;9.98;100.00
77017;BME280;65949;53.132;17.930;2023-10-31T01:46:37;99298.41;;;10.00;100.00
77017;BME280;65949;53.132;17.930;2023-10-31T01:49:03;99296.97;;;10.02;100.00
77017;BME280;65949;53.132;17.930;2023-10-31T01:51:30;99291.64;;;10.05;99.99
77017;BME280;65949;53.132;17.930;2023-10-31T01:53:57;99280.08;;;10.07;100.00
77017;BME280;65949;53.132;17.930;2023-10-31T01:56:25;99274.00;;;10.09;100.00
77017;BME280;65949;53.132;17.930;2023-10-31T01:58:52;99267.41;;;10.11;100.00
77017;BME280;65949;53.132;17.930;2023-10-31T02:01:20;99257.17;;;10.14;100.00
77017;BME280;65949;53.132;17.930;2023-10-31T02:03:47;99252.88;;;10.16;100.00
77017;BME280;65949;53.132;17.930;2023-10-31T02:06:14;99253.17;;;10.17;99.98
77017;BME280;65949;53.132;17.930;2023-10-31T02:08:40;99251.85;;;10.18;100.00
77017;BME280;65949;53.132;17.930;2023-10-31T02:11:07;99243.30;;;10.20;100.00
77017;BME280;65949;53.132;17.930;2023-10-31T02:13:36;99238.39;;;10.21;100.00
77017;BME280;65949;53.132;17.930;2023-10-31T02:16:04;99230.27;;;10.22;99.99
77017;BME280;65949;53.132;17.930;2023-10-31T02:18:32;99224.91;;;10.23;100.00
77017;BME280;65949;53.132;17.930;2023-10-31T02:20:59;99219.52;;;10.25;100.00
77017;BME280;65949;53.132;17.930;2023-10-31T02:23:26;99212.77;;;10.27;100.00
77017;BME280;65949;53.132;17.930;2023-10-31T02:25:52;99205.98;;;10.28;100.00
77017;BME280;65949;53.132;17.930;2023-10-31T02:28:19;99204.24;;;10.29;100.00
77017;BME280;65949;53.132;17.930;2023-10-31T02:30:46;99197.97;;;10.31;99.99
77017;BME280;65949;53.132;17.930;2023-10-31T02:33:12;99188.67;;;10.32;100.00
77017;BME280;65949;53.132;17.930;2023-10-31T02:35:40;99180.63;;;10.33;100.00
77017;BME280;65949;53.132;17.930;2023-10-31T02:38:06;99179.50;;;10.35;100.00
77017;BME280;65949;53.132;17.930;2023-10-31T02:40:34;99177.87;;;10.37;100.00
77017;BME280;65949;53.132;17.930;2023-10-31T02:43:01;99172.95;;;10.38;100.00
77017;BME280;65949;53.132;17.930;2023-10-31T02:45:29;99171.80;;;10.39;100.00
77017;BME280;65949;53.132;17.930;2023-10-31T02:47:55;99166.41;;;10.39;99.94
77017;BME280;65949;53.132;17.930;2023-10-31T02:50:22;99161.92;;;10.40;100.00
77017;BME280;65949;53.132;17.930;2023-10-31T02:52:49;99155.27;;;10.41;99.97
77017;BME280;65949;53.132;17.930;2023-10-31T02:55:17;99153.07;;;10.43;100.00
77017;BME280;65949;53.132;17.930;2023-10-31T02:57:43;99146.91;;;10.43;100.00
77017;BME280;65949;53.132;17.930;2023-10-31T03:00:11;99142.98;;;10.45;99.99
77017;BME280;65949;53.132;17.930;2023-10-31T03:02:38;99136.50;;;10.46;100.00
77017;BME280;65949;53.132;17.930;2023-10-31T03:05:05;99132.52;;;10.47;99.92
77017;BME280;65949;53.132;17.930;2023-10-31T03:07:32;99132.43;;;10.49;100.00
77017;BME280;65949;53.132;17.930;2023-10-31T03:09:58;99127.05;;;10.51;99.96
77017;BME280;65949;53.132;17.930;2023-10-31T03:12:25;99122.56;;;10.53;100.00
77017;BME280;65949;53.132;17.930;2023-10-31T03:14:52;99111.27;;;10.55;99.98
77017;BME280;65949;53.132;17.930;2023-10-31T03:17:18;99101.83;;;10.56;99.96
77017;BME280;65949;53.132;17.930;2023-10-31T03:19:45;99098.21;;;10.58;99.83
77017;BME280;65949;53.132;17.930;2023-10-31T03:22:12;99081.83;;;10.59;99.93
77017;BME280;65949;53.132;17.930;2023-10-31T03:24:40;99080.02;;;10.61;99.99
77017;BME280;65949;53.132;17.930;2023-10-31T03:27:06;99066.98;;;10.63;99.99
77017;BME280;65949;53.132;17.930;2023-10-31T03:29:33;99063.42;;;10.68;99.97
77017;BME280;65949;53.132;17.930;2023-10-31T03:32:00;99053.01;;;10.72;100.00
77017;BME280;65949;53.132;17.930;2023-10-31T03:34:27;99052.52;;;10.79;100.00
77017;BME280;65949;53.132;17.930;2023-10-31T03:36:53;99059.26;;;10.88;100.00
77017;BME280;65949;53.132;17.930;2023-10-31T03:39:20;99055.18;;;11.01;100.00
77017;BME280;65949;53.132;17.930;2023-10-31T03:41:47;99067.31;;;11.14;100.00
77017;BME280;65949;53.132;17.930;2023-10-31T03:44:13;99072.34;;;11.25;99.93
77017;BME280;65949;53.132;17.930;2023-10-31T03:46:40;99063.79;;;11.34;99.89
77017;BME280;65949;53.132;17.930;2023-10-31T03:49:06;99052.92;;;11.46;99.92
77017;BME280;65949;53.132;17.930;2023-10-31T03:51:34;99043.44;;;11.57;99.80
77017;BME280;65949;53.132;17.930;2023-10-31T03:54:01;99039.00;;;11.69;99.38
77017;BME280;65949;53.132;17.930;2023-10-31T03:56:28;99033.85;;;11.79;98.89
77017;BME280;65949;53.132;17.930;2023-10-31T03:58:55;99025.87;;;11.89;98.72
77017;BME280;65949;53.132;17.930;2023-10-31T04:01:22;99020.05;;;11.98;98.28
77017;BME280;65949;53.132;17.930;2023-10-31T04:03:48;99008.09;;;12.06;97.96
77017;BME280;65949;53.132;17.930;2023-10-31T04:06:15;99001.83;;;12.14;97.59
77017;BME280;65949;53.132;17.930;2023-10-31T04:08:43;98998.93;;;12.21;97.31
77017;BME280;65949;53.132;17.930;2023-10-31T04:11:09;98981.17;;;12.24;96.82
77017;BME280;65949;53.132;17.930;2023-10-31T04:13:36;98979.28;;;12.30;96.78
77017;BME280;65949;53.132;17.930;2023-10-31T04:16:03;98977.27;;;12.33;96.21
77017;BME280;65949;53.132;17.930;2023-10-31T04:18:30;98969.45;;;12.38;95.86
77017;BME280;65949;53.132;17.930;2023-10-31T04:20:57;98977.05;;;12.41;96.01
77017;BME280;65949;53.132;17.930;2023-10-31T04:23:23;98970.96;;;12.42;95.78
77017;BME280;65949;53.132;17.930;2023-10-31T04:25:51;98973.23;;;12.42;95.69
77017;BME280;65949;53.132;17.930;2023-10-31T04:28:19;98979.88;;;12.42;95.60
77017;BME280;65949;53.132;17.930;2023-10-31T04:30:45;98977.08;;;12.43;95.56
77017;BME280;65949;53.132;17.930;2023-10-31T04:33:12;98979.64;;;12.43;95.49
77017;BME280;65949;53.132;17.930;2023-10-31T04:35:39;98976.80;;;12.44;95.60
77017;BME280;65949;53.132;17.930;2023-10-31T04:38:06;98975.02;;;12.42;95.50
77017;BME280;65949;53.132;17.930;2023-10-31T04:40:32;98972.30;;;12.42;95.43
77017;BME280;65949;53.132;17.930;2023-10-31T04:42:59;98971.95;;;12.44;95.40
77017;BME280;65949;53.132;17.930;2023-10-31T04:45:26;98969.48;;;12.44;95.35
77017;BME280;65949;53.132;17.930;2023-10-31T04:47:53;98965.98;;;12.42;95.31
77017;BME280;65949;53.132;17.930;2023-10-31T04:50:20;98964.93;;;12.42;95.28
77017;BME280;65949;53.132;17.930;2023-10-31T04:52:46;98955.67;;;12.42;95.27
77017;BME280;65949;53.132;17.930;2023-10-31T04:55:13;98951.96;;;12.43;95.17
77017;BME280;65949;53.132;17.930;2023-10-31T04:57:40;98946.42;;;12.42;95.07
77017;BME280;65949;53.132;17.930;2023-10-31T05:00:07;98943.39;;;12.43;95.13
77017;BME280;65949;53.132;17.930;2023-10-31T05:02:34;98939.27;;;12.44;94.99
77017;BME280;65949;53.132;17.930;2023-10-31T05:05:01;98933.65;;;12.45;94.94
77017;BME280;65949;53.132;17.930;2023-10-31T05:07:28;98927.43;;;12.47;94.98
77017;BME280;65949;53.132;17.930;2023-10-31T05:09:55;98927.36;;;12.48;94.80
77017;BME280;65949;53.132;17.930;2023-10-31T05:12:22;98919.42;;;12.47;94.74
77017;BME280;65949;53.132;17.930;2023-10-31T05:14:48;98922.30;;;12.47;94.77
77017;BME280;65949;53.132;17.930;2023-10-31T05:17:15;98916.27;;;12.46;94.75
77017;BME280;65949;53.132;17.930;2023-10-31T05:19:41;98915.91;;;12.46;94.66
77017;BME280;65949;53.132;17.930;2023-10-31T05:22:08;98915.27;;;12.47;94.55
77017;BME280;65949;53.132;17.930;2023-10-31T05:24:36;98916.73;;;12.46;94.65
77017;BME280;65949;53.132;17.930;2023-10-31T05:27:03;98911.64;;;12.46;94.42
77017;BME280;65949;53.132;17.930;2023-10-31T05:29:30;98904.93;;;12.44;94.50
77017;BME280;65949;53.132;17.930;2023-10-31T05:31:57;98903.91;;;12.45;94.59
77017;BME280;65949;53.132;17.930;2023-10-31T05:34:23;98898.33;;;12.45;94.43
77017;BME280;65949;53.132;17.930;2023-10-31T05:36:50;98886.98;;;12.45;94.39
77017;BME280;65949;53.132;17.930;2023-10-31T05:39:17;98884.19;;;12.46;94.45
77017;BME280;65949;53.132;17.930;2023-10-31T05:41:43;98886.77;;;12.45;94.35
77017;BME280;65949;53.132;17.930;2023-10-31T05:44:10;98885.98;;;12.44;94.21
77017;BME280;65949;53.132;17.930;2023-10-31T05:46:38;98886.83;;;12.43;94.30
77017;BME280;65949;53.132;17.930;2023-10-31T05:49:08;98886.56;;;12.44;94.31
77017;BME280;65949;53.132;17.930;2023-10-31T05:51:35;98885.14;;;12.44;94.23
77017;BME280;65949;53.132;17.930;2023-10-31T05:54:02;98887.91;;;12.44;94.32
77017;BME280;65949;53.132;17.930;2023-10-31T05:56:29;98883.52;;;12.44;94.10
77017;BME280;65949;53.132;17.930;2023-10-31T05:58:55;98877.67;;;12.44;93.97
77017;BME280;65949;53.132;17.930;2023-10-31T06:01:22;98880.33;;;12.44;94.05
77017;BME280;65949;53.132;17.930;2023-10-31T06:03:48;98873.80;;;12.44;93.94
77017;BME280;65949;53.132;17.930;2023-10-31T06:06:15;98875.24;;;12.45;94.00
77017;BME280;65949;53.132;17.930;2023-10-31T06:08:42;98874.20;;;12.46;93.98
77017;BME280;65949;53.132;17.930;2023-10-31T06:11:09;98874.85;;;12.47;94.01
77017;BME280;65949;53.132;17.930;2023-10-31T06:13:38;98870.20;;;12.51;93.92
77017;BME280;65949;53.132;17.930;2023-10-31T06:16:06;98872.11;;;12.53;93.75
77017;BME280;65949;53.132;17.930;2023-10-31T06:18:33;98874.73;;;12.55;93.84
77017;BME280;65949;53.132;17.930;2023-10-31T06:21:01;98874.48;;;12.58;93.67
77017;BME280;65949;53.132;17.930;2023-10-31T06:23:27;98877.09;;;12.59;93.55
77017;BME280;65949;53.132;17.930;2023-10-31T06:25:54;98875.67;;;12.61;93.46
77017;BME280;65949;53.132;17.930;2023-10-31T06:28:21;98873.31;;;12.63;93.56
77017;BME280;65949;53.132;17.930;2023-10-31T06:30:47;98868.33;;;12.66;93.37
77017;BME280;65949;53.132;17.930;2023-10-31T06:33:14;98867.59;;;12.67;93.37
77017;BME280;65949;53.132;17.930;2023-10-31T06:35:40;98872.95;;;12.69;93.31
77017;BME280;65949;53.132;17.930;2023-10-31T06:38:07;98874.20;;;12.70;93.29
77017;BME280;65949;53.132;17.930;2023-10-31T06:40:34;98868.81;;;12.70;93.46
77017;BME280;65949;53.132;17.930;2023-10-31T06:43:01;98865.87;;;12.71;93.53
77017;BME280;65949;53.132;17.930;2023-10-31T06:45:28;98866.33;;;12.71;93.59
77017;BME280;65949;53.132;17.930;2023-10-31T06:47:54;98862.33;;;12.72;93.64
77017;BME280;65949;53.132;17.930;2023-10-31T06:50:21;98864.54;;;12.71;93.78
77017;BME280;65949;53.132;17.930;2023-10-31T06:52:48;98859.84;;;12.70;93.79
77017;BME280;65949;53.132;17.930;2023-10-31T06:55:15;98858.48;;;12.68;94.08
77017;BME280;65949;53.132;17.930;2023-10-31T06:57:42;98853.79;;;12.66;94.18
77017;BME280;65949;53.132;17.930;2023-10-31T07:00:13;98853.89;;;12.65;94.22
77017;BME280;65949;53.132;17.930;2023-10-31T07:02:40;98849.27;;;12.63;94.49
77017;BME280;65949;53.132;17.930;2023-10-31T07:05:08;98848.46;;;12.62;94.45
77017;BME280;65949;53.132;17.930;2023-10-31T07:07:36;98849.73;;;12.62;94.68
77017;BME280;65949;53.132;17.930;2023-10-31T07:10:03;98844.55;;;12.62;94.80
77017;BME280;65949;53.132;17.930;2023-10-31T07:12:30;98843.42;;;12.61;94.81
77017;BME280;65949;53.132;17.930;2023-10-31T07:14:57;98844.37;;;12.61;94.97
77017;BME280;65949;53.132;17.930;2023-10-31T07:17:25;98839.66;;;12.61;95.02
77017;BME280;65949;53.132;17.930;2023-10-31T07:19:52;98836.59;;;12.62;95.15
77017;BME280;65949;53.132;17.930;2023-10-31T07:22:18;98833.38;;;12.64;95.33
77017;BME280;65949;53.132;17.930;2023-10-31T07:24:45;98833.36;;;12.64;95.29
77017;BME280;65949;53.132;17.930;2023-10-31T07:27:12;98831.55;;;12.63;95.40
77017;BME280;65949;53.132;17.930;2023-10-31T07:29:39;98830.73;;;12.63;95.51
77017;BME280;65949;53.132;17.930;2023-10-31T07:32:10;98825.61;;;12.62;95.50
77017;BME280;65949;53.132;17.930;2023-10-31T07:34:40;98826.14;;;12.61;95.91
77017;BME280;65949;53.132;17.930;2023-10-31T07:37:07;98818.19;;;12.60;95.78
77017;BME280;65949;53.132;17.930;2023-10-31T07:39:34;98817.23;;;12.58;95.91
77017;BME280;65949;53.132;17.930;2023-10-31T07:42:00;98816.68;;;12.57;96.18
77017;BME280;65949;53.132;17.930;2023-10-31T07:44:27;98815.66;;;12.57;96.12
77017;BME280;65949;53.132;17.930;2023-10-31T07:46:54;98810.83;;;12.56;96.34
77017;BME280;65949;53.132;17.930;2023-10-31T07:49:21;98808.66;;;12.55;96.34
77017;BME280;65949;53.132;17.930;2023-10-31T07:51:48;98807.45;;;12.55;96.51
77017;BME280;65949;53.132;17.930;2023-10-31T07:54:15;98807.88;;;12.55;96.69
77017;BME280;65949;53.132;17.930;2023-10-31T07:56:42;98806.90;;;12.53;96.86
77017;BME280;65949;53.132;17.930;2023-10-31T07:59:09;98808.87;;;12.51;96.95
77017;BME280;65949;53.132;17.930;2023-10-31T08:01:37;98804.35;;;12.51;97.02
77017;BME280;65949;53.132;17.930;2023-10-31T08:04:04;98806.81;;;12.51;97.18
77017;BME280;65949;53.132;17.930;2023-10-31T08:06:31;98801.98;;;12.49;97.36
77017;BME280;65949;53.132;17.930;2023-10-31T08:08:57;98802.70;;;12.50;97.70
77017;BME280;65949;53.132;17.930;2023-10-31T08:11:24;98809.02;;;12.50;97.65
77017;BME280;65949;53.132;17.930;2023-10-31T08:13:50;98808.32;;;12.49;97.73
77017;BME280;65949;53.132;17.930;2023-10-31T08:16:18;98805.17;;;12.49;98.07
77017;BME280;65949;53.132;17.930;2023-10-31T08:18:48;98806.69;;;12.49;98.14
77017;BME280;65949;53.132;17.930;2023-10-31T08:21:15;98809.73;;;12.51;98.38
77017;BME280;65949;53.132;17.930;2023-10-31T08:23:42;98808.81;;;12.52;98.55
77017;BME280;65949;53.132;17.930;2023-10-31T08:26:11;98807.45;;;12.53;98.52
77017;BME280;65949;53.132;17.930;2023-10-31T08:28:39;98812.43;;;12.56;98.86
77017;BME280;65949;53.132;17.930;2023-10-31T08:31:06;98821.02;;;12.58;99.10
77017;BME280;65949;53.132;17.930;2023-10-31T08:33:34;98820.61;;;12.59;99.15
77017;BME280;65949;53.132;17.930;2023-10-31T08:36:00;98825.37;;;12.60;99.33
77017;BME280;65949;53.132;17.930;2023-10-31T08:38:27;98827.55;;;12.60;99.58
77017;BME280;65949;53.132;17.930;2023-10-31T08:40:55;98830.05;;;12.61;99.70
77017;BME280;65949;53.132;17.930;2023-10-31T08:43:22;98831.73;;;12.62;99.94
77017;BME280;65949;53.132;17.930;2023-10-31T08:45:49;98834.37;;;12.63;100.00
77017;BME280;65949;53.132;17.930;2023-10-31T08:48:15;98836.26;;;12.63;99.97
77017;BME280;65949;53.132;17.930;2023-10-31T08:50:42;98839.86;;;12.63;100.00
77017;BME280;65949;53.132;17.930;2023-10-31T08:53:10;98843.73;;;12.65;100.00
77017;BME280;65949;53.132;17.930;2023-10-31T08:55:36;98843.27;;;12.66;100.00
77017;BME280;65949;53.132;17.930;2023-10-31T08:58:03;98841.91;;;12.70;100.00
77017;BME280;65949;53.132;17.930;2023-10-31T09:00:30;98847.10;;;12.72;100.00
77017;BME280;65949;53.132;17.930;2023-10-31T09:02:56;98847.68;;;12.77;100.00
77017;BME280;65949;53.132;17.930;2023-10-31T09:05:23;98849.56;;;12.81;100.00
77017;BME280;65949;53.132;17.930;2023-10-31T09:07:50;98852.27;;;12.85;100.00
77017;BME280;65949;53.132;17.930;2023-10-31T09:10:16;98855.94;;;12.89;100.00
77017;BME280;65949;53.132;17.930;2023-10-31T09:12:43;98856.01;;;12.93;100.00
77017;BME280;65949;53.132;17.930;2023-10-31T09:15:10;98852.20;;;12.97;100.00
77017;BME280;65949;53.132;17.930;2023-10-31T09:17:36;98850.20;;;12.99;100.00
77017;BME280;65949;53.132;17.930;2023-10-31T09:20:04;98847.22;;;12.99;100.00
77017;BME280;65949;53.132;17.930;2023-10-31T09:22:31;98853.00;;;12.99;100.00
77017;BME280;65949;53.132;17.930;2023-10-31T09:24:58;98852.32;;;12.99;100.00
77017;BME280;65949;53.132;17.930;2023-10-31T09:27:25;98855.40;;;13.00;100.00
77017;BME280;65949;53.132;17.930;2023-10-31T09:29:51;98852.31;;;12.99;100.00
77017;BME280;65949;53.132;17.930;2023-10-31T09:32:18;98854.78;;;13.05;100.00
77017;BME280;65949;53.132;17.930;2023-10-31T09:34:45;98856.52;;;13.11;100.00
77017;BME280;65949;53.132;17.930;2023-10-31T09:37:12;98854.73;;;13.12;100.00
77017;BME280;65949;53.132;17.930;2023-10-31T09:39:38;98849.66;;;13.15;100.00
77017;BME280;65949;53.132;17.930;2023-10-31T09:42:05;98858.06;;;13.19;100.00
77017;BME280;65949;53.132;17.930;2023-10-31T09:44:34;98861.66;;;13.21;100.00
77017;BME280;65949;53.132;17.930;2023-10-31T09:47:01;98869.83;;;13.23;100.00
77017;BME280;65949;53.132;17.930;2023-10-31T09:49:28;98867.74;;;13.27;100.00
77017;BME280;65949;53.132;17.930;2023-10-31T09:51:55;98871.83;;;13.30;100.00
77017;BME280;65949;53.132;17.930;2023-10-31T09:54:22;98884.69;;;13.32;100.00
77017;BME280;65949;53.132;17.930;2023-10-31T09:56:49;98885.40;;;13.33;100.00
77017;BME280;65949;53.132;17.930;2023-10-31T09:59:16;98891.00;;;13.33;100.00
77017;BME280;65949;53.132;17.930;2023-10-31T10:01:43;98891.80;;;13.32;100.00
77017;BME280;65949;53.132;17.930;2023-10-31T10:04:10;98890.79;;;13.32;100.00
77017;BME280;65949;53.132;17.930;2023-10-31T10:06:48;98883.91;;;13.35;100.00
77017;BME280;65949;53.132;17.930;2023-10-31T10:09:15;98886.52;;;13.38;100.00
77017;BME280;65949;53.132;17.930;2023-10-31T10:11:42;98894.85;;;13.42;100.00
77017;BME280;65949;53.132;17.930;2023-10-31T10:14:11;98895.02;;;13.47;100.00
77017;BME280;65949;53.132;17.930;2023-10-31T10:16:38;98896.30;;;13.49;99.97
77017;BME280;65949;53.132;17.930;2023-10-31T10:19:21;98902.40;;;13.50;99.92
77017;BME280;65949;53.132;17.930;2023-10-31T10:24:18;98910.46;;;13.51;99.80
77017;BME280;65949;53.132;17.930;2023-10-31T10:26:46;98912.12;;;13.51;99.45
77017;BME280;65949;53.132;17.930;2023-10-31T10:29:13;98913.94;;;13.52;99.16
77017;BME280;65949;53.132;17.930;2023-10-31T10:31:40;98919.21;;;13.51;99.20
77017;BME280;65949;53.132;17.930;2023-10-31T10:34:08;98925.49;;;13.49;99.01
77017;BME280;65949;53.132;17.930;2023-10-31T10:36:35;98930.98;;;13.47;98.86
77017;BME280;65949;53.132;17.930;2023-10-31T10:39:02;98933.45;;;13.45;98.73
77017;BME280;65949;53.132;17.930;2023-10-31T10:41:33;98942.38;;;13.44;98.63
77017;BME280;65949;53.132;17.930;2023-10-31T10:44:05;98952.39;;;13.42;98.57
77017;BME280;65949;53.132;17.930;2023-10-31T10:46:35;98959.81;;;13.40;98.34
77017;BME280;65949;53.132;17.930;2023-10-31T10:49:04;98967.89;;;13.39;98.26
77017;BME280;65949;53.132;17.930;2023-10-31T10:51:43;98965.14;;;13.37;98.18
77017;BME280;65949;53.132;17.930;2023-10-31T10:54:25;98971.33;;;13.37;98.17
77017;BME280;65949;53.132;17.930;2023-10-31T10:56:54;98970.92;;;13.36;97.99
77017;BME280;65949;53.132;17.930;2023-10-31T10:59:42;98966.23;;;13.36;97.98
77017;BME280;65949;53.132;17.930;2023-10-31T11:02:09;98961.42;;;13.38;97.73
77017;BME280;65949;53.132;17.930;2023-10-31T11:04:41;98953.77;;;13.39;97.46
77017;BME280;65949;53.132;17.930;2023-10-31T11:07:08;98952.52;;;13.40;97.09
77017;BME280;65949;53.132;17.930;2023-10-31T11:09:35;98953.27;;;13.39;96.67
77017;BME280;65949;53.132;17.930;2023-10-31T11:12:04;98946.67;;;13.41;96.62
77017;BME280;65949;53.132;17.930;2023-10-31T11:14:32;98952.76;;;13.40;96.55
77017;BME280;65949;53.132;17.930;2023-10-31T11:17:10;98963.38;;;13.38;96.43
77017;BME280;65949;53.132;17.930;2023-10-31T11:19:39;98962.95;;;13.37;96.59
77017;BME280;65949;53.132;17.930;2023-10-31T11:22:06;98971.07;;;13.34;96.37
77017;BME280;65949;53.132;17.930;2023-10-31T11:24:34;98976.36;;;13.35;96.25
77017;BME280;65949;53.132;17.930;2023-10-31T11:27:05;98984.35;;;13.37;96.20
77017;BME280;65949;53.132;17.930;2023-10-31T11:29:33;98995.17;;;13.37;96.04
77017;BME280;65949;53.132;17.930;2023-10-31T11:31:59;99006.65;;;13.38;96.00
77017;BME280;65949;53.132;17.930;2023-10-31T11:34:27;99012.83;;;13.35;95.86
77017;BME280;65949;53.132;17.930;2023-10-31T11:42:41;99053.70;;;13.28;96.18
77017;BME280;65949;53.132;17.930;2023-10-31T11:45:08;99049.65;;;13.24;96.16
77017;BME280;65949;53.132;17.930;2023-10-31T11:47:46;99045.75;;;13.19;95.95
77017;BME280;65949;53.132;17.930;2023-10-31T11:50:13;99055.59;;;13.13;96.11
77017;BME280;65949;53.132;17.930;2023-10-31T11:52:40;99068.51;;;13.10;96.32
77017;BME280;65949;53.132;17.930;2023-10-31T11:55:10;99076.85;;;13.07;96.49
77017;BME280;65949;53.132;17.930;2023-10-31T11:57:38;99081.15;;;13.07;96.52
77017;BME280;65949;53.132;17.930;2023-10-31T12:00:06;99086.35;;;13.06;96.85
77017;BME280;65949;53.132;17.930;2023-10-31T12:02:39;99094.23;;;13.05;97.03
77017;BME280;65949;53.132;17.930;2023-10-31T12:05:12;99100.08;;;13.05;97.19
77017;BME280;65949;53.132;17.930;2023-10-31T12:07:43;99097.73;;;13.03;97.43
77017;BME280;65949;53.132;17.930;2023-10-31T12:10:10;99101.12;;;13.00;97.62
77017;BME280;65949;53.132;17.930;2023-10-31T12:12:37;99100.45;;;12.97;97.96
77017;BME280;65949;53.132;17.930;2023-10-31T12:15:13;99102.39;;;12.93;98.19
77017;BME280;65949;53.132;17.930;2023-10-31T12:17:40;99096.31;;;12.89;98.20
77017;BME280;65949;53.132;17.930;2023-10-31T12:20:08;99095.73;;;12.88;98.32
77017;BME280;65949;53.132;17.930;2023-10-31T12:22:35;99090.23;;;12.90;98.57
77017;BME280;65949;53.132;17.930;2023-10-31T12:25:05;99084.91;;;12.93;98.50
77017;BME280;65949;53.132;17.930;2023-10-31T12:27:49;99080.69;;;12.93;98.77
77017;BME280;65949;53.132;17.930;2023-10-31T12:30:22;99080.33;;;12.93;98.86
77017;BME280;65949;53.132;17.930;2023-10-31T12:32:54;99074.63;;;12.97;98.85
77017;BME280;65949;53.132;17.930;2023-10-31T12:35:25;99071.42;;;13.00;98.78
77017;BME280;65949;53.132;17.930;2023-10-31T12:37:53;99069.56;;;12.98;98.85
77017;BME280;65949;53.132;17.930;2023-10-31T12:40:21;99071.13;;;13.03;98.79
77017;BME280;65949;53.132;17.930;2023-10-31T12:42:49;99067.44;;;13.14;98.64
77017;BME280;65949;53.132;17.930;2023-10-31T12:45:17;99073.85;;;13.25;98.56
77017;BME280;65949;53.132;17.930;2023-10-31T12:47:44;99076.83;;;13.26;98.22
77017;BME280;65949;53.132;17.930;2023-10-31T12:50:16;99075.27;;;13.24;98.01
77017;BME280;65949;53.132;17.930;2023-10-31T12:52:53;99082.66;;;13.23;98.09
77017;BME280;65949;53.132;17.930;2023-10-31T12:55:27;99083.42;;;13.25;98.05
77017;BME280;65949;53.132;17.930;2023-10-31T12:57:57;99095.83;;;13.31;98.04